Time;durP1;ratioP1;P1;durP2;ratioP2;P2;SDS_P1;SDS_P2;PMS_P1;PMS_P2;Temp;Humidity;BMP_temperature;BMP_pressure;BME280_temperature;BME280_humidity;BME280_pressure;Samples;Min_cycle;Max_cycle;Signal;HPM_P1;HPM_P2
2024/04/17 00:02:00;;;;;;;12.25;2.25;;;;;;;;;;5445817;26;20358;-74
2024/04/17 00:04:26;;;;;;;13.30;2.58;;;;;;;;;;5429191;26;20005;-74
2024/04/17 00:06:53;;;;;;;16.67;2.65;;;;;;;;;;5413965;26;20014;-74
2024/04/17 00:09:20;;;;;;;15.73;2.95;;;;;;;;;;5444509;26;20048;-74
2024/04/17 00:11:46;;;;;;;13.70;2.63;;;;;;;;;;5456971;26;20111;-74
2024/04/17 00:14:13;;;;;;;6.45;1.98;;;;;;;;;;5452802;26;20081;-73
2024/04/17 00:16:39;;;;;;;11.95;2.20;;;;;;;;;;5462439;26;20010;-74
2024/04/17 00:19:06;;;;;;;7.53;1.90;;;;;;;;;;5424334;26;20064;-75
2024/04/17 00:21:33;;;;;;;6.03;1.52;;;;;;;;;;5444836;26;20014;-77
2024/04/17 00:24:00;;;;;;;7.07;1.75;;;;;;;;;;5438017;26;20017;-76
2024/04/17 00:26:26;;;;;;;9.50;1.70;;;;;;;;;;5457845;26;20003;-76
2024/04/17 00:28:53;;;;;;;9.20;1.83;;;;;;;;;;5466845;26;20077;-76
2024/04/17 00:31:19;;;;;;;5.75;2.05;;;;;;;;;;5433421;26;20003;-76
2024/04/17 00:33:46;;;;;;;9.95;2.15;;;;;;;;;;5461568;26;20010;-75
2024/04/17 00:36:12;;;;;;;9.80;2.00;;;;;;;;;;5466604;26;20014;-77
2024/04/17 00:38:39;;;;;;;12.05;2.25;;;;;;;;;;5431749;26;20002;-74
2024/04/17 00:41:05;;;;;;;11.38;2.40;;;;;;;;;;5463214;26;20017;-75
2024/04/17 00:43:32;;;;;;;8.80;1.83;;;;;;;;;;5422303;26;19999;-73
2024/04/17 00:45:59;;;;;;;9.65;1.90;;;;;;;;;;5438818;26;20331;-74
2024/04/17 00:48:26;;;;;;;14.20;2.30;;;;;;;;;;5420800;26;20079;-76
2024/04/17 00:50:53;;;;;;;11.65;2.20;;;;;;;;;;5471765;26;20006;-76
2024/04/17 00:53:25;;;;;;;8.77;1.88;;;;;;;;;;5465406;26;20078;-75
2024/04/17 00:55:52;;;;;;;11.30;2.30;;;;;;;;;;5419708;26;20028;-75
2024/04/17 00:58:19;;;;;;;7.68;2.15;;;;;;;;;;5458609;26;20031;-75
2024/04/17 01:00:45;;;;;;;10.15;2.58;;;;;;;;;;5440785;26;20016;-74
2024/04/17 01:03:12;;;;;;;16.23;2.28;;;;;;;;;;5456398;26;20739;-75
2024/04/17 01:05:38;;;;;;;12.45;2.47;;;;;;;;;;5434449;26;19999;-75
2024/04/17 01:08:08;;;;;;;7.90;2.42;;;;;;;;;;5460279;26;20394;-76
2024/04/17 01:10:35;;;;;;;7.15;2.20;;;;;;;;;;5430469;26;20019;-75
2024/04/17 01:13:01;;;;;;;4.30;1.73;;;;;;;;;;5445168;26;20012;-74
2024/04/17 01:15:28;;;;;;;14.63;2.40;;;;;;;;;;5427510;26;20002;-75
2024/04/17 01:17:55;;;;;;;8.27;1.90;;;;;;;;;;5453120;26;20013;-75
2024/04/17 01:20:22;;;;;;;9.73;2.37;;;;;;;;;;5480059;26;20010;-75
2024/04/17 01:22:49;;;;;;;7.35;1.83;;;;;;;;;;5460997;26;19998;-76
2024/04/17 01:25:15;;;;;;;9.25;2.78;;;;;;;;;;5463843;26;20013;-75
2024/04/17 01:27:42;;;;;;;10.48;2.40;;;;;;;;;;5434116;26;20076;-75
2024/04/17 01:30:08;;;;;;;8.95;2.38;;;;;;;;;;5448590;26;20018;-75
2024/04/17 01:32:35;;;;;;;10.30;2.42;;;;;;;;;;5443278;26;20009;-75
2024/04/17 01:35:02;;;;;;;5.93;1.90;;;;;;;;;;5451208;26;20338;-74
2024/04/17 01:37:28;;;;;;;10.60;2.05;;;;;;;;;;5449525;26;20009;-75
2024/04/17 01:39:55;;;;;;;7.45;2.10;;;;;;;;;;5466200;26;20010;-75
2024/04/17 01:42:21;;;;;;;9.10;2.10;;;;;;;;;;5456398;26;19998;-75
2024/04/17 01:44:48;;;;;;;7.10;2.40;;;;;;;;;;5453088;26;20019;-75
2024/04/17 01:47:14;;;;;;;9.63;2.55;;;;;;;;;;5428024;26;20010;-74
2024/04/17 01:49:41;;;;;;;4.95;1.95;;;;;;;;;;5469246;26;20460;-75
2024/04/17 01:52:07;;;;;;;8.65;2.72;;;;;;;;;;5459326;26;20010;-74
2024/04/17 01:54:34;;;;;;;6.00;2.10;;;;;;;;;;5447261;26;20075;-75
2024/04/17 01:57:00;;;;;;;7.35;2.40;;;;;;;;;;5450565;26;20634;-74
2024/04/17 01:59:27;;;;;;;10.25;2.50;;;;;;;;;;5427759;26;20017;-75
2024/04/17 02:01:54;;;;;;;5.95;1.98;;;;;;;;;;5434928;26;20018;-75
2024/04/17 02:04:21;;;;;;;3.95;1.95;;;;;;;;;;5422115;26;20735;-74
2024/04/17 02:06:47;;;;;;;7.47;2.10;;;;;;;;;;5460115;26;20017;-74
2024/04/17 02:09:14;;;;;;;7.88;2.33;;;;;;;;;;5445407;26;19995;-75
2024/04/17 02:11:40;;;;;;;11.75;2.58;;;;;;;;;;5459971;26;20014;-74
2024/04/17 02:14:07;;;;;;;10.77;2.70;;;;;;;;;;5442156;26;20007;-74
2024/04/17 02:16:33;;;;;;;13.60;3.00;;;;;;;;;;5441836;26;20010;-74
2024/04/17 02:19:00;;;;;;;7.35;2.42;;;;;;;;;;5466080;26;19998;-76
2024/04/17 02:21:26;;;;;;;11.50;2.67;;;;;;;;;;5477634;26;20006;-76
2024/04/17 02:23:53;;;;;;;10.63;2.72;;;;;;;;;;5444101;26;20002;-76
2024/04/17 02:26:19;;;;;;;6.10;1.90;;;;;;;;;;5471611;26;20474;-75
2024/04/17 02:28:46;;;;;;;15.38;2.40;;;;;;;;;;5459055;26;19998;-74
2024/04/17 02:31:12;;;;;;;10.23;2.20;;;;;;;;;;5449912;26;20010;-75
2024/04/17 02:33:39;;;;;;;7.45;2.50;;;;;;;;;;5473379;26;20017;-75
2024/04/17 02:36:06;;;;;;;7.15;2.33;;;;;;;;;;5449899;26;20063;-75
2024/04/17 02:38:32;;;;;;;10.70;2.63;;;;;;;;;;5464427;26;20411;-74
2024/04/17 02:40:59;;;;;;;10.23;2.25;;;;;;;;;;5447879;26;20070;-75
2024/04/17 02:43:26;;;;;;;12.77;2.95;;;;;;;;;;5457097;26;20450;-75
2024/04/17 02:45:52;;;;;;;11.20;2.72;;;;;;;;;;5439516;26;20006;-74
2024/04/17 02:48:19;;;;;;;10.93;2.72;;;;;;;;;;5460997;26;19994;-75
2024/04/17 02:50:45;;;;;;;8.00;1.98;;;;;;;;;;5469273;26;20066;-75
2024/04/17 02:53:12;;;;;;;10.45;2.60;;;;;;;;;;5449045;26;20528;-75
2024/04/17 02:55:38;;;;;;;10.77;3.42;;;;;;;;;;5441336;26;20003;-74
2024/04/17 02:58:05;;;;;;;10.80;2.60;;;;;;;;;;5453660;26;20013;-74
2024/04/17 03:00:32;;;;;;;12.82;2.50;;;;;;;;;;5448495;26;20478;-74
2024/04/17 03:03:00;;;;;;;7.95;2.35;;;;;;;;;;5463086;26;20006;-74
2024/04/17 03:05:27;;;;;;;9.65;2.15;;;;;;;;;;5406845;26;20010;-72
2024/04/17 03:07:53;;;;;;;11.05;2.38;;;;;;;;;;5476791;26;20010;-76
2024/04/17 03:10:20;;;;;;;8.32;2.58;;;;;;;;;;5451297;26;20011;-73
2024/04/17 03:12:46;;;;;;;9.20;2.33;;;;;;;;;;5397059;26;20014;-76
2024/04/17 03:15:13;;;;;;;8.60;2.30;;;;;;;;;;5458165;26;19999;-76
2024/04/17 03:17:39;;;;;;;10.73;2.13;;;;;;;;;;5414514;26;20368;-75
2024/04/17 03:20:06;;;;;;;11.65;2.30;;;;;;;;;;5458713;26;20008;-75
2024/04/17 03:22:33;;;;;;;11.63;2.58;;;;;;;;;;5463723;26;20014;-76
2024/04/17 03:25:00;;;;;;;9.38;2.28;;;;;;;;;;5444098;26;20072;-76
2024/04/17 03:27:26;;;;;;;9.68;2.10;;;;;;;;;;5458949;26;20006;-75
2024/04/17 03:29:53;;;;;;;10.70;2.53;;;;;;;;;;5456912;26;19998;-75
2024/04/17 03:32:19;;;;;;;10.07;2.47;;;;;;;;;;5441173;26;20003;-75
2024/04/17 03:34:47;;;;;;;7.68;2.08;;;;;;;;;;5434903;26;20451;-74
2024/04/17 03:37:13;;;;;;;9.27;2.25;;;;;;;;;;5468560;26;20014;-76
2024/04/17 03:39:40;;;;;;;6.18;2.30;;;;;;;;;;5477114;26;20568;-75
2024/04/17 03:42:07;;;;;;;8.02;2.10;;;;;;;;;;5447424;26;20005;-76
2024/04/17 03:44:33;;;;;;;7.25;1.83;;;;;;;;;;5454040;26;20435;-74
2024/04/17 03:47:00;;;;;;;8.88;2.28;;;;;;;;;;5447153;26;20061;-74
2024/04/17 03:49:26;;;;;;;7.07;1.77;;;;;;;;;;5478942;26;20020;-75
2024/04/17 03:51:53;;;;;;;7.40;2.10;;;;;;;;;;5458625;26;20096;-75
2024/04/17 03:54:19;;;;;;;6.22;2.40;;;;;;;;;;5429638;26;20006;-76
2024/04/17 03:56:46;;;;;;;6.80;2.20;;;;;;;;;;5462048;26;19999;-73
2024/04/17 03:59:12;;;;;;;8.32;1.98;;;;;;;;;;5437527;26;20001;-74
2024/04/17 04:01:39;;;;;;;8.75;2.00;;;;;;;;;;5473185;26;20002;-76
2024/04/17 04:04:05;;;;;;;6.20;1.70;;;;;;;;;;5434859;26;20075;-76
2024/04/17 04:06:32;;;;;;;4.07;1.80;;;;;;;;;;5411688;26;20038;-75
2024/04/17 04:08:58;;;;;;;7.15;2.05;;;;;;;;;;5438250;26;19999;-74
2024/04/17 04:11:26;;;;;;;7.38;1.67;;;;;;;;;;5459879;26;20002;-76
2024/04/17 04:13:52;;;;;;;6.72;1.95;;;;;;;;;;5457423;26;20010;-75
2024/04/17 04:16:19;;;;;;;5.47;1.67;;;;;;;;;;5466662;26;20002;-75
2024/04/17 04:18:45;;;;;;;8.25;1.73;;;;;;;;;;5443965;26;20338;-75
2024/04/17 04:21:12;;;;;;;7.10;1.60;;;;;;;;;;5428510;26;20100;-75
2024/04/17 04:23:38;;;;;;;5.43;1.60;;;;;;;;;;5461280;26;20018;-73
2024/04/17 04:26:05;;;;;;;4.40;1.90;;;;;;;;;;5441469;26;20003;-74
2024/04/17 04:28:31;;;;;;;6.50;1.80;;;;;;;;;;5424013;26;19999;-73
2024/04/17 04:30:58;;;;;;;3.03;1.60;;;;;;;;;;5455911;26;20039;-75
2024/04/17 04:33:24;;;;;;;5.70;1.70;;;;;;;;;;5417382;26;19995;-73
2024/04/17 04:35:51;;;;;;;4.95;1.98;;;;;;;;;;5401471;26;20014;-75
2024/04/17 04:38:17;;;;;;;4.53;1.80;;;;;;;;;;5435821;26;20009;-74
2024/04/17 04:40:44;;;;;;;4.05;1.52;;;;;;;;;;5440323;26;19999;-74
2024/04/17 04:43:10;;;;;;;3.70;1.70;;;;;;;;;;5475087;26;20002;-76
2024/04/17 04:45:37;;;;;;;8.10;2.03;;;;;;;;;;5434399;26;19999;-74
2024/04/17 04:48:04;;;;;;;5.15;1.67;;;;;;;;;;5456656;26;19998;-76
2024/04/17 04:50:35;;;;;;;6.43;2.30;;;;;;;;;;5434990;26;20011;-74
2024/04/17 04:53:02;;;;;;;6.68;2.05;;;;;;;;;;5419858;26;20505;-77
2024/04/17 04:55:28;;;;;;;6.70;1.70;;;;;;;;;;5478825;26;20017;-74
2024/04/17 04:57:56;;;;;;;5.80;1.92;;;;;;;;;;5466528;26;19995;-76
2024/04/17 05:00:23;;;;;;;5.13;2.22;;;;;;;;;;5460019;26;19998;-76
2024/04/17 05:02:49;;;;;;;4.45;2.08;;;;;;;;;;5449259;26;20010;-76
2024/04/17 05:05:16;;;;;;;4.55;2.13;;;;;;;;;;5460317;26;19999;-76
2024/04/17 05:07:42;;;;;;;4.13;1.70;;;;;;;;;;5444247;26;19998;-75
2024/04/17 05:10:09;;;;;;;9.48;2.10;;;;;;;;;;5463014;26;20302;-74
2024/04/17 05:12:35;;;;;;;6.50;2.70;;;;;;;;;;5453348;26;20009;-75
2024/04/17 05:15:02;;;;;;;7.53;2.38;;;;;;;;;;5448278;26;20002;-77
2024/04/17 05:17:28;;;;;;;9.57;3.00;;;;;;;;;;5439747;26;20006;-73
2024/04/17 05:19:55;;;;;;;6.25;2.40;;;;;;;;;;5460260;26;20020;-74
2024/04/17 05:22:22;;;;;;;3.70;1.48;;;;;;;;;;5464186;26;20013;-77
2024/04/17 05:24:48;;;;;;;3.88;1.70;;;;;;;;;;5429905;26;20142;-77
2024/04/17 05:27:15;;;;;;;3.30;1.58;;;;;;;;;;5446012;26;20082;-76
2024/04/17 05:29:41;;;;;;;3.03;1.42;;;;;;;;;;5439910;26;20014;-76
2024/04/17 05:32:11;;;;;;;3.60;1.48;;;;;;;;;;5438906;26;20003;-76
2024/04/17 05:34:38;;;;;;;2.88;1.10;;;;;;;;;;5451916;26;20018;-76
2024/04/17 05:37:05;;;;;;;2.28;1.35;;;;;;;;;;5477738;26;20002;-79
2024/04/17 05:39:32;;;;;;;3.42;0.98;;;;;;;;;;5451479;26;20547;-77
2024/04/17 05:41:58;;;;;;;4.50;1.20;;;;;;;;;;5472117;26;20005;-75
2024/04/17 05:44:25;;;;;;;3.45;1.35;;;;;;;;;;5442767;26;20003;-75
2024/04/17 05:46:51;;;;;;;4.47;0.95;;;;;;;;;;5421122;26;19994;-74
2024/04/17 05:49:18;;;;;;;2.30;1.05;;;;;;;;;;5454396;26;20029;-73
2024/04/17 05:51:44;;;;;;;1.33;0.80;;;;;;;;;;5456991;26;20763;-72
2024/04/17 05:54:11;;;;;;;2.80;1.10;;;;;;;;;;5436483;26;20014;-72
2024/04/17 05:56:37;;;;;;;2.60;1.27;;;;;;;;;;5405479;26;20002;-72
2024/04/17 05:59:03;;;;;;;2.13;0.73;;;;;;;;;;5407840;26;19999;-73
2024/04/17 06:01:30;;;;;;;3.45;1.15;;;;;;;;;;5460044;26;20021;-71
2024/04/17 06:03:57;;;;;;;1.35;0.90;;;;;;;;;;5413683;26;20011;-72
2024/04/17 06:06:23;;;;;;;2.22;0.90;;;;;;;;;;5455479;26;20014;-72
2024/04/17 06:08:50;;;;;;;1.30;0.73;;;;;;;;;;5433818;26;19999;-72
2024/04/17 06:11:16;;;;;;;3.20;1.02;;;;;;;;;;5413946;26;19998;-71
2024/04/17 06:13:43;;;;;;;3.55;0.80;;;;;;;;;;5449265;26;20041;-71
2024/04/17 06:16:09;;;;;;;1.60;0.52;;;;;;;;;;5454204;26;20017;-71
2024/04/17 06:18:36;;;;;;;3.67;0.70;;;;;;;;;;5472409;26;20444;-71
2024/04/17 06:21:03;;;;;;;1.27;0.60;;;;;;;;;;5430571;26;20007;-71
2024/04/17 06:23:29;;;;;;;2.30;0.77;;;;;;;;;;5442448;26;19998;-71
2024/04/17 06:25:56;;;;;;;1.48;0.80;;;;;;;;;;5455804;26;20017;-71
2024/04/17 06:28:22;;;;;;;1.95;1.05;;;;;;;;;;5426064;26;19999;-71
2024/04/17 06:30:49;;;;;;;2.50;0.88;;;;;;;;;;5464006;26;20003;-73
2024/04/17 06:33:15;;;;;;;1.75;0.70;;;;;;;;;;5443379;26;20038;-72
2024/04/17 06:35:42;;;;;;;2.10;1.00;;;;;;;;;;5441136;26;20016;-72
2024/04/17 06:38:08;;;;;;;1.88;0.88;;;;;;;;;;5438194;26;19995;-74
2024/04/17 06:40:35;;;;;;;1.05;0.60;;;;;;;;;;5447837;26;20038;-72
2024/04/17 06:43:01;;;;;;;1.08;0.60;;;;;;;;;;5427902;26;20367;-72
2024/04/17 06:45:28;;;;;;;1.98;0.75;;;;;;;;;;5433110;26;20003;-73
2024/04/17 06:47:54;;;;;;;1.75;0.63;;;;;;;;;;5459362;26;20011;-72
2024/04/17 06:50:21;;;;;;;1.75;0.77;;;;;;;;;;5405762;26;20517;-72
2024/04/17 06:52:47;;;;;;;1.60;0.70;;;;;;;;;;5464430;26;20031;-72
2024/04/17 06:55:14;;;;;;;0.95;0.50;;;;;;;;;;5441867;26;20300;-73
2024/04/17 06:57:41;;;;;;;1.33;0.70;;;;;;;;;;5431560;26;20691;-72
2024/04/17 07:00:08;;;;;;;2.33;0.77;;;;;;;;;;5443980;26;19998;-72
2024/04/17 07:02:34;;;;;;;2.92;0.93;;;;;;;;;;5452090;26;20003;-72
2024/04/17 07:05:12;;;;;;;2.15;1.00;;;;;;;;;;5459131;26;20014;-72
2024/04/17 07:07:38;;;;;;;5.03;1.10;;;;;;;;;;5455492;26;20013;-73
2024/04/17 07:10:05;;;;;;;2.05;1.10;;;;;;;;;;5421460;26;19994;-73
2024/04/17 07:12:32;;;;;;;3.00;1.50;;;;;;;;;;5431444;26;20511;-72
2024/04/17 07:14:58;;;;;;;3.00;1.27;;;;;;;;;;5442912;26;19999;-72
2024/04/17 07:17:25;;;;;;;7.82;1.60;;;;;;;;;;5416517;26;20063;-73
2024/04/17 07:19:51;;;;;;;8.23;2.05;;;;;;;;;;5459808;26;20014;-73
2024/04/17 07:22:18;;;;;;;4.80;1.92;;;;;;;;;;5464823;26;19998;-72
2024/04/17 07:24:44;;;;;;;6.55;1.73;;;;;;;;;;5434983;26;20003;-73
2024/04/17 07:27:11;;;;;;;3.92;1.77;;;;;;;;;;5456231;26;20748;-72
2024/04/17 07:29:37;;;;;;;10.20;2.30;;;;;;;;;;5455005;26;20014;-74
2024/04/17 07:32:04;;;;;;;5.90;1.83;;;;;;;;;;5456453;26;20002;-72
2024/04/17 07:34:31;;;;;;;7.03;2.28;;;;;;;;;;5466094;26;19995;-71
2024/04/17 07:36:57;;;;;;;5.85;1.73;;;;;;;;;;5457861;26;20014;-72
2024/04/17 07:39:24;;;;;;;5.05;1.90;;;;;;;;;;5427498;26;20011;-73
2024/04/17 07:41:50;;;;;;;3.55;1.80;;;;;;;;;;5438649;26;20757;-72
2024/04/17 07:44:17;;;;;;;9.93;2.65;;;;;;;;;;5443774;26;20104;-72
2024/04/17 07:46:44;;;;;;;7.38;1.65;;;;;;;;;;5449612;26;20013;-72
2024/04/17 07:49:11;;;;;;;9.68;2.05;;;;;;;;;;5449904;26;20003;-72
2024/04/17 07:51:37;;;;;;;7.22;1.65;;;;;;;;;;5436962;26;20022;-71
2024/04/17 07:54:04;;;;;;;6.47;1.90;;;;;;;;;;5432347;26;20038;-73
2024/04/17 07:56:30;;;;;;;5.60;1.55;;;;;;;;;;5399461;26;20447;-71
2024/04/17 07:58:57;;;;;;;6.90;1.90;;;;;;;;;;5441083;26;19998;-71
2024/04/17 08:01:23;;;;;;;5.82;2.10;;;;;;;;;;5471967;26;20339;-72
2024/04/17 08:03:50;;;;;;;11.25;2.65;;;;;;;;;;5425969;26;20032;-72
2024/04/17 08:06:20;;;;;;;7.40;1.75;;;;;;;;;;5434771;26;19998;-71
2024/04/17 08:08:47;;;;;;;6.35;1.83;;;;;;;;;;5448247;26;20401;-71
2024/04/17 08:11:14;;;;;;;6.03;1.70;;;;;;;;;;5471612;26;20002;-73
2024/04/17 08:13:40;;;;;;;6.35;1.75;;;;;;;;;;5456773;26;20479;-72
2024/04/17 08:16:07;;;;;;;11.45;1.80;;;;;;;;;;5443712;26;20007;-73
2024/04/17 08:18:33;;;;;;;5.80;1.50;;;;;;;;;;5405622;26;20060;-73
2024/04/17 08:21:00;;;;;;;5.65;1.40;;;;;;;;;;5452128;26;20021;-72
2024/04/17 08:23:26;;;;;;;5.03;1.25;;;;;;;;;;5463354;26;20013;-72
2024/04/17 08:25:59;;;;;;;10.52;1.80;;;;;;;;;;5440454;26;20061;-72
2024/04/17 08:28:26;;;;;;;7.70;1.52;;;;;;;;;;5479255;26;20342;-70
2024/04/17 08:30:53;;;;;;;7.47;1.58;;;;;;;;;;5433043;26;20013;-71
2024/04/17 08:33:19;;;;;;;9.13;2.00;;;;;;;;;;5400517;26;20967;-74
2024/04/17 08:35:46;;;;;;;6.03;1.40;;;;;;;;;;5435194;26;20461;-71
2024/04/17 08:38:12;;;;;;;9.00;1.45;;;;;;;;;;5456663;26;20006;-72
2024/04/17 08:40:39;;;;;;;8.80;1.92;;;;;;;;;;5451775;26;19999;-72
2024/04/17 08:43:06;;;;;;;7.88;1.52;;;;;;;;;;5461478;26;20358;-72
2024/04/17 08:45:33;;;;;;;11.30;1.52;;;;;;;;;;5429907;26;20007;-71
2024/04/17 08:48:15;;;;;;;7.00;1.42;;;;;;;;;;5470214;26;20009;-72
2024/04/17 08:50:42;;;;;;;8.63;1.55;;;;;;;;;;5424979;26;20003;-71
2024/04/17 08:53:09;;;;;;;7.13;2.03;;;;;;;;;;5455615;26;20451;-74
2024/04/17 08:55:36;;;;;;;9.63;1.30;;;;;;;;;;5415842;26;20013;-73
2024/04/17 08:58:03;;;;;;;6.97;1.20;;;;;;;;;;5452756;26;20665;-71
2024/04/17 09:00:30;;;;;;;6.22;1.33;;;;;;;;;;5447308;26;20017;-72
2024/04/17 09:02:58;;;;;;;9.77;1.60;;;;;;;;;;5422241;26;20014;-71
2024/04/17 09:05:25;;;;;;;11.20;1.35;;;;;;;;;;5451678;26;20003;-72
2024/04/17 09:07:52;;;;;;;7.65;0.88;;;;;;;;;;5407634;26;20454;-72
2024/04/17 09:10:19;;;;;;;4.22;1.15;;;;;;;;;;5464865;26;20358;-72
2024/04/17 09:12:46;;;;;;;9.18;1.48;;;;;;;;;;5452632;26;20003;-72
2024/04/17 09:15:13;;;;;;;4.88;0.93;;;;;;;;;;5434576;26;20014;-72
2024/04/17 09:17:40;;;;;;;4.20;0.90;;;;;;;;;;5437070;26;20006;-73
2024/04/17 09:20:06;;;;;;;5.65;1.10;;;;;;;;;;5436776;26;20083;-72
2024/04/17 09:22:33;;;;;;;6.13;1.25;;;;;;;;;;5447592;26;20009;-71
2024/04/17 09:25:00;;;;;;;5.90;1.30;;;;;;;;;;5434783;26;20013;-73
2024/04/17 09:27:26;;;;;;;5.47;0.93;;;;;;;;;;5451926;26;20002;-72
2024/04/17 09:29:53;;;;;;;8.35;1.45;;;;;;;;;;5461217;26;20075;-72
2024/04/17 09:32:22;;;;;;;9.50;1.88;;;;;;;;;;5440917;26;19999;-73
2024/04/17 09:34:48;;;;;;;6.55;1.13;;;;;;;;;;5443067;26;20071;-71
2024/04/17 09:37:15;;;;;;;5.40;1.27;;;;;;;;;;5448123;26;20017;-73
2024/04/17 09:39:41;;;;;;;4.43;0.90;;;;;;;;;;5455749;26;19999;-72
2024/04/17 09:42:09;;;;;;;3.65;0.98;;;;;;;;;;5432783;26;20315;-72
2024/04/17 09:44:36;;;;;;;8.57;1.05;;;;;;;;;;5426860;26;20010;-73
2024/04/17 09:47:07;;;;;;;5.47;1.30;;;;;;;;;;5463580;26;20017;-72
2024/04/17 09:49:34;;;;;;;6.13;1.20;;;;;;;;;;5459281;26;19998;-74
2024/04/17 09:52:02;;;;;;;7.40;0.85;;;;;;;;;;5446070;26;20006;-72
2024/04/17 09:54:29;;;;;;;3.22;0.80;;;;;;;;;;5402549;26;19999;-73
2024/04/17 09:56:56;;;;;;;3.40;0.82;;;;;;;;;;5421282;26;20003;-72
2024/04/17 09:59:23;;;;;;;5.10;1.13;;;;;;;;;;5444250;26;20014;-72
2024/04/17 10:01:50;;;;;;;4.88;1.40;;;;;;;;;;5457186;26;20030;-72
2024/04/17 10:04:17;;;;;;;6.50;0.98;;;;;;;;;;5443057;26;20405;-72
2024/04/17 10:06:46;;;;;;;2.22;0.70;;;;;;;;;;5407788;26;20047;-73
2024/04/17 10:09:13;;;;;;;1.53;0.50;;;;;;;;;;5461846;26;19999;-73
2024/04/17 10:11:40;;;;;;;4.38;0.82;;;;;;;;;;5444861;26;20244;-73
2024/04/17 10:14:11;;;;;;;5.95;1.00;;;;;;;;;;5407726;26;20788;-72
2024/04/17 10:16:39;;;;;;;6.32;1.00;;;;;;;;;;5465548;26;19999;-73
2024/04/17 10:19:06;;;;;;;5.35;1.00;;;;;;;;;;5432699;26;20002;-72
2024/04/17 10:21:35;;;;;;;3.13;0.75;;;;;;;;;;5453162;26;20011;-72
2024/04/17 10:24:02;;;;;;;5.05;1.17;;;;;;;;;;5472291;26;20008;-72
2024/04/17 10:26:45;;;;;;;2.30;0.73;;;;;;;;;;5420834;26;20003;-75
2024/04/17 10:29:22;;;;;;;3.47;1.17;;;;;;;;;;5433131;26;19999;-74
2024/04/17 10:31:59;;;;;;;5.13;0.80;;;;;;;;;;5413265;26;20070;-73
2024/04/17 10:34:27;;;;;;;4.53;0.88;;;;;;;;;;5463592;26;20011;-73
2024/04/17 10:36:54;;;;;;;1.95;0.70;;;;;;;;;;5460681;26;20020;-72
2024/04/17 10:39:21;;;;;;;4.50;1.52;;;;;;;;;;5456522;26;20037;-72
2024/04/17 10:41:47;;;;;;;3.13;1.20;;;;;;;;;;5461919;26;19998;-73
2024/04/17 10:44:15;;;;;;;2.38;0.68;;;;;;;;;;5436786;26;20007;-73
2024/04/17 10:46:42;;;;;;;7.33;1.07;;;;;;;;;;5427462;26;19998;-73
2024/04/17 10:49:15;;;;;;;6.60;1.20;;;;;;;;;;5461491;26;20018;-72
2024/04/17 10:51:42;;;;;;;1.35;0.73;;;;;;;;;;5433458;26;19994;-74
2024/04/17 10:54:12;;;;;;;4.10;1.33;;;;;;;;;;5442009;26;19999;-73
2024/04/17 10:56:39;;;;;;;1.52;0.70;;;;;;;;;;5427717;26;19998;-73
2024/04/17 10:59:05;;;;;;;3.83;0.63;;;;;;;;;;5465517;26;20014;-73
2024/04/17 11:01:32;;;;;;;4.68;0.80;;;;;;;;;;5454704;26;20457;-73
2024/04/17 11:04:00;;;;;;;1.55;0.60;;;;;;;;;;5445691;26;20014;-74
2024/04/17 11:06:26;;;;;;;1.27;0.60;;;;;;;;;;5442246;26;20023;-74
2024/04/17 11:08:53;;;;;;;2.08;0.50;;;;;;;;;;5474853;26;19998;-72
2024/04/17 11:11:30;;;;;;;2.20;0.60;;;;;;;;;;5444385;26;20525;-72
2024/04/17 11:13:57;;;;;;;1.40;0.55;;;;;;;;;;5432928;26;19998;-72
2024/04/17 11:16:23;;;;;;;1.55;0.70;;;;;;;;;;5436484;26;20549;-71
2024/04/17 11:18:50;;;;;;;2.95;0.93;;;;;;;;;;5461974;26;20013;-72
2024/04/17 11:21:16;;;;;;;1.15;0.60;;;;;;;;;;5424201;26;20002;-72
2024/04/17 11:23:44;;;;;;;3.33;0.98;;;;;;;;;;5415549;26;20007;-72
2024/04/17 11:26:10;;;;;;;2.50;0.80;;;;;;;;;;5434713;26;20017;-73
2024/04/17 11:28:43;;;;;;;2.42;0.88;;;;;;;;;;5451185;26;20405;-72
2024/04/17 11:31:15;;;;;;;3.03;0.60;;;;;;;;;;5486403;26;20018;-72
2024/04/17 11:33:44;;;;;;;3.55;0.80;;;;;;;;;;5408797;26;20006;-72
2024/04/17 11:36:12;;;;;;;2.60;0.68;;;;;;;;;;5447532;26;20047;-72
2024/04/17 11:38:39;;;;;;;;;;;;;;;;;;5452000;26;20014;-72
2024/04/17 11:41:06;;;;;;;1.10;0.50;;;;;;;;;;5473269;26;19992;-72
2024/04/17 11:43:33;;;;;;;3.30;0.70;;;;;;;;;;5459972;26;20002;-73
2024/04/17 11:45:59;;;;;;;1.63;0.52;;;;;;;;;;5442880;26;20339;-72
2024/04/17 11:48:26;;;;;;;2.25;0.50;;;;;;;;;;5456506;26;20018;-73
2024/04/17 11:50:53;;;;;;;3.55;0.60;;;;;;;;;;5453283;26;20002;-73
2024/04/17 11:53:19;;;;;;;1.35;0.50;;;;;;;;;;5474748;26;20477;-73
2024/04/17 11:55:46;;;;;;;1.33;0.60;;;;;;;;;;5476992;26;20002;-72
2024/04/17 11:58:12;;;;;;;1.05;0.63;;;;;;;;;;5480370;26;20013;-72
2024/04/17 12:00:39;;;;;;;1.58;0.50;;;;;;;;;;5462085;26;20489;-73
2024/04/17 12:03:05;;;;;;;2.47;0.65;;;;;;;;;;5464368;26;20018;-72
2024/04/17 12:05:32;;;;;;;2.25;1.00;;;;;;;;;;5434501;26;20010;-72
2024/04/17 12:07:59;;;;;;;2.10;0.60;;;;;;;;;;5444325;26;20003;-72
2024/04/17 12:10:26;;;;;;;2.15;0.70;;;;;;;;;;5429451;26;20438;-73
2024/04/17 12:12:53;;;;;;;2.97;0.77;;;;;;;;;;5431268;26;20460;-73
2024/04/17 12:15:20;;;;;;;1.92;0.73;;;;;;;;;;5450134;26;19999;-73
2024/04/17 12:17:46;;;;;;;1.67;0.80;;;;;;;;;;5437010;26;20014;-74
2024/04/17 12:20:13;;;;;;;0.60;0.50;;;;;;;;;;5444454;26;20014;-73
2024/04/17 12:22:39;;;;;;;0.47;0.47;;;;;;;;;;5446690;26;20003;-73
2024/04/17 12:27:51;;;;;;;1.13;0.70;;;;;;;;;;5466115;26;20010;-74
2024/04/17 12:30:18;;;;;;;2.47;0.70;;;;;;;;;;5450314;26;20009;-74
2024/04/17 12:32:44;;;;;;;1.25;0.70;;;;;;;;;;5459171;26;20002;-75
2024/04/17 12:35:12;;;;;;;1.17;0.60;;;;;;;;;;5467936;26;20441;-75
2024/04/17 12:37:39;;;;;;;0.50;0.50;;;;;;;;;;5442860;26;20006;-75
2024/04/17 12:40:06;;;;;;;1.27;0.60;;;;;;;;;;5448964;26;20029;-75
2024/04/17 12:42:33;;;;;;;0.80;0.60;;;;;;;;;;5453531;26;20011;-76
2024/04/17 12:44:59;;;;;;;1.50;0.90;;;;;;;;;;5418623;26;20109;-75
2024/04/17 12:47:26;;;;;;;0.50;0.50;;;;;;;;;;5407147;26;19998;-75
2024/04/17 12:49:52;;;;;;;1.55;0.68;;;;;;;;;;5468220;26;20006;-75
2024/04/17 12:52:19;;;;;;;1.10;0.70;;;;;;;;;;5447510;26;20072;-74
2024/04/17 12:54:45;;;;;;;0.40;0.40;;;;;;;;;;5416293;26;20003;-74
2024/04/17 12:57:12;;;;;;;2.10;0.70;;;;;;;;;;5443950;26;20103;-74
2024/04/17 12:59:38;;;;;;;0.47;0.47;;;;;;;;;;5392862;26;19999;-75
2024/04/17 13:02:05;;;;;;;1.98;0.70;;;;;;;;;;5454659;26;20810;-75
2024/04/17 13:04:43;;;;;;;1.48;0.60;;;;;;;;;;5447470;26;20067;-76
2024/04/17 13:07:10;;;;;;;1.40;0.70;;;;;;;;;;5427280;26;20034;-74
2024/04/17 13:09:36;;;;;;;4.50;0.75;;;;;;;;;;5467137;26;20003;-74
2024/04/17 13:12:03;;;;;;;1.02;0.57;;;;;;;;;;5447674;26;20458;-74
2024/04/17 13:14:29;;;;;;;0.57;0.55;;;;;;;;;;5424280;26;20012;-74
2024/04/17 13:16:57;;;;;;;1.33;0.70;;;;;;;;;;5403245;26;20014;-75
2024/04/17 13:19:26;;;;;;;2.73;0.50;;;;;;;;;;5442839;26;20006;-74
2024/04/17 13:21:53;;;;;;;1.40;0.50;;;;;;;;;;5487081;26;20957;-74
2024/04/17 13:24:19;;;;;;;0.70;0.65;;;;;;;;;;5448131;26;20010;-76
2024/04/17 13:26:46;;;;;;;3.53;0.70;;;;;;;;;;5461204;26;20010;-75
2024/04/17 13:29:13;;;;;;;0.85;0.73;;;;;;;;;;5439770;26;20599;-75
2024/04/17 13:31:39;;;;;;;1.77;0.60;;;;;;;;;;5475359;26;20050;-76
2024/04/17 13:34:06;;;;;;;2.17;0.70;;;;;;;;;;5444627;26;20018;-75
2024/04/17 13:36:33;;;;;;;0.70;0.63;;;;;;;;;;5425455;26;20002;-76
2024/04/17 13:38:59;;;;;;;0.50;0.50;;;;;;;;;;5467323;26;20038;-75
2024/04/17 13:41:26;;;;;;;0.90;0.60;;;;;;;;;;5441265;26;20401;-74
2024/04/17 13:43:52;;;;;;;0.50;0.50;;;;;;;;;;5439760;26;20076;-75
2024/04/17 13:46:19;;;;;;;0.88;0.50;;;;;;;;;;5458569;26;20007;-76
2024/04/17 13:48:48;;;;;;;0.55;0.52;;;;;;;;;;5438560;26;19995;-75
2024/04/17 13:51:15;;;;;;;0.55;0.52;;;;;;;;;;5455306;26;20473;-75
2024/04/17 13:53:50;;;;;;;1.05;0.60;;;;;;;;;;5445008;26;20010;-74
2024/04/17 13:56:17;;;;;;;0.90;0.60;;;;;;;;;;5463097;26;20014;-74
2024/04/17 13:58:43;;;;;;;1.13;0.47;;;;;;;;;;5462300;26;20471;-75
2024/04/17 14:01:10;;;;;;;2.47;0.68;;;;;;;;;;5455125;26;20078;-75
2024/04/17 14:03:37;;;;;;;1.30;0.60;;;;;;;;;;5444626;26;20004;-75
2024/04/17 14:06:04;;;;;;;0.90;0.60;;;;;;;;;;5468308;26;20663;-75
2024/04/17 14:08:31;;;;;;;3.58;0.70;;;;;;;;;;5470041;26;20005;-75
2024/04/17 14:10:59;;;;;;;0.57;0.57;;;;;;;;;;5428994;26;20002;-75
2024/04/17 14:13:27;;;;;;;0.70;0.70;;;;;;;;;;5452488;26;20450;-74
2024/04/17 14:15:54;;;;;;;;;;;;;;;;;;5479336;26;20002;-74
2024/04/17 14:18:20;;;;;;;2.10;0.70;;;;;;;;;;5470504;26;19930;-75
2024/04/17 14:20:47;;;;;;;0.80;0.40;;;;;;;;;;5449699;26;20006;-75
2024/04/17 14:23:19;;;;;;;0.43;0.40;;;;;;;;;;5408046;26;20323;-74
2024/04/17 14:25:58;;;;;;;0.55;0.50;;;;;;;;;;5441767;26;20750;-75
2024/04/17 14:28:26;;;;;;;0.40;0.40;;;;;;;;;;5416963;26;20013;-74
2024/04/17 14:30:59;;;;;;;0.45;0.40;;;;;;;;;;5470606;26;20063;-74
2024/04/17 14:33:27;;;;;;;0.60;0.55;;;;;;;;;;5454058;26;20075;-75
2024/04/17 14:35:54;;;;;;;0.60;0.60;;;;;;;;;;5423521;26;20003;-76
2024/04/17 14:38:24;;;;;;;0.68;0.60;;;;;;;;;;5408960;26;20010;-76
2024/04/17 14:40:57;;;;;;;0.60;0.50;;;;;;;;;;5444127;26;20009;-76
2024/04/17 14:43:25;;;;;;;0.85;0.40;;;;;;;;;;5416277;26;19998;-76